sensor_id;sensor_type;location;lat;lon;timestamp;temperature;humidity
69031;DHT22;56083;48.774;8.942;2023-03-14T00:01:44;8.70;99.90
69031;DHT22;56083;48.774;8.942;2023-03-14T00:04:10;8.70;99.90
69031;DHT22;56083;48.774;8.942;2023-03-14T00:06:35;8.70;99.90
69031;DHT22;56083;48.774;8.942;2023-03-14T00:09:01;8.70;99.90
69031;DHT22;56083;48.774;8.942;2023-03-14T00:11:27;8.60;99.90
69031;DHT22;56083;48.774;8.942;2023-03-14T00:13:53;8.70;99.90
69031;DHT22;56083;48.774;8.942;2023-03-14T00:16:19;8.70;99.90
69031;DHT22;56083;48.774;8.942;2023-03-14T00:18:44;8.70;99.90
69031;DHT22;56083;48.774;8.942;2023-03-14T00:21:11;8.70;99.90
69031;DHT22;56083;48.774;8.942;2023-03-14T00:23:39;8.70;99.90
69031;DHT22;56083;48.774;8.942;2023-03-14T00:28:33;8.70;99.90
69031;DHT22;56083;48.774;8.942;2023-03-14T00:31:02;8.70;99.90
69031;DHT22;56083;48.774;8.942;2023-03-14T00:33:28;8.70;99.90
69031;DHT22;56083;48.774;8.942;2023-03-14T00:35:58;8.60;99.90
69031;DHT22;56083;48.774;8.942;2023-03-14T00:38:25;8.60;99.90
69031;DHT22;56083;48.774;8.942;2023-03-14T00:40:51;8.70;99.90
69031;DHT22;56083;48.774;8.942;2023-03-14T00:43:18;8.70;99.90
69031;DHT22;56083;48.774;8.942;2023-03-14T00:45:44;8.70;99.90
69031;DHT22;56083;48.774;8.942;2023-03-14T00:48:10;8.70;99.90
69031;DHT22;56083;48.774;8.942;2023-03-14T00:50:36;8.60;99.90
69031;DHT22;56083;48.774;8.942;2023-03-14T00:53:01;8.70;99.90
69031;DHT22;56083;48.774;8.942;2023-03-14T00:55:27;8.70;99.90
69031;DHT22;56083;48.774;8.942;2023-03-14T00:57:52;8.70;99.90
69031;DHT22;56083;48.774;8.942;2023-03-14T01:00:18;8.70;99.90
69031;DHT22;56083;48.774;8.942;2023-03-14T01:02:43;8.70;99.90
69031;DHT22;56083;48.774;8.942;2023-03-14T01:05:09;8.70;99.90
69031;DHT22;56083;48.774;8.942;2023-03-14T01:07:38;8.80;99.90
69031;DHT22;56083;48.774;8.942;2023-03-14T01:10:05;8.70;99.90
69031;DHT22;56083;48.774;8.942;2023-03-14T01:12:31;8.80;99.90
69031;DHT22;56083;48.774;8.942;2023-03-14T01:14:57;8.80;99.90
69031;DHT22;56083;48.774;8.942;2023-03-14T01:17:22;8.80;99.90
69031;DHT22;56083;48.774;8.942;2023-03-14T01:19:48;8.80;99.90
69031;DHT22;56083;48.774;8.942;2023-03-14T01:22:14;8.80;99.90
69031;DHT22;56083;48.774;8.942;2023-03-14T01:24:39;8.80;99.90
69031;DHT22;56083;48.774;8.942;2023-03-14T01:27:05;8.80;99.90
69031;DHT22;56083;48.774;8.942;2023-03-14T01:29:30;8.80;99.90
69031;DHT22;56083;48.774;8.942;2023-03-14T01:31:56;8.80;99.90
69031;DHT22;56083;48.774;8.942;2023-03-14T01:34:21;8.80;99.90
69031;DHT22;56083;48.774;8.942;2023-03-14T01:36:47;8.80;99.90
69031;DHT22;56083;48.774;8.942;2023-03-14T01:39:13;8.80;99.90
69031;DHT22;56083;48.774;8.942;2023-03-14T01:41:39;8.70;99.90
69031;DHT22;56083;48.774;8.942;2023-03-14T01:44:05;8.70;99.90
69031;DHT22;56083;48.774;8.942;2023-03-14T01:46:43;8.60;99.90
69031;DHT22;56083;48.774;8.942;2023-03-14T01:51:49;8.60;99.90
69031;DHT22;56083;48.774;8.942;2023-03-14T01:56:57;8.60;99.90
69031;DHT22;56083;48.774;8.942;2023-03-14T01:59:24;8.50;99.90
69031;DHT22;56083;48.774;8.942;2023-03-14T02:01:51;8.50;99.90
69031;DHT22;56083;48.774;8.942;2023-03-14T02:04:17;8.50;99.90
69031;DHT22;56083;48.774;8.942;2023-03-14T02:06:58;8.60;99.90
69031;DHT22;56083;48.774;8.942;2023-03-14T02:09:25;8.60;99.90
69031;DHT22;56083;48.774;8.942;2023-03-14T02:11:51;8.60;99.90
69031;DHT22;56083;48.774;8.942;2023-03-14T02:14:34;8.60;99.90
69031;DHT22;56083;48.774;8.942;2023-03-14T02:17:01;8.70;99.90
69031;DHT22;56083;48.774;8.942;2023-03-14T02:22:35;8.60;99.90
69031;DHT22;56083;48.774;8.942;2023-03-14T02:25:24;8.60;99.90
69031;DHT22;56083;48.774;8.942;2023-03-14T02:27:54;8.60;99.90
69031;DHT22;56083;48.774;8.942;2023-03-14T02:30:26;8.60;99.90
69031;DHT22;56083;48.774;8.942;2023-03-14T02:32:55;8.60;99.90
69031;DHT22;56083;48.774;8.942;2023-03-14T02:35:26;8.60;99.90
69031;DHT22;56083;48.774;8.942;2023-03-14T02:37:57;8.60;99.90
69031;DHT22;56083;48.774;8.942;2023-03-14T02:40:25;8.50;99.90
69031;DHT22;56083;48.774;8.942;2023-03-14T02:42:51;8.50;99.90
69031;DHT22;56083;48.774;8.942;2023-03-14T02:47:44;8.50;99.90
69031;DHT22;56083;48.774;8.942;2023-03-14T02:50:26;8.40;99.90
69031;DHT22;56083;48.774;8.942;2023-03-14T02:52:53;8.40;99.90
69031;DHT22;56083;48.774;8.942;2023-03-14T02:55:22;8.40;99.90
69031;DHT22;56083;48.774;8.942;2023-03-14T02:57:49;8.40;99.90
69031;DHT22;56083;48.774;8.942;2023-03-14T03:00:15;8.40;99.90
69031;DHT22;56083;48.774;8.942;2023-03-14T03:02:41;8.40;99.90
69031;DHT22;56083;48.774;8.942;2023-03-14T03:05:06;8.40;99.90
69031;DHT22;56083;48.774;8.942;2023-03-14T03:07:32;8.40;99.90
69031;DHT22;56083;48.774;8.942;2023-03-14T03:09:58;8.40;99.90
69031;DHT22;56083;48.774;8.942;2023-03-14T03:12:23;8.40;99.90
69031;DHT22;56083;48.774;8.942;2023-03-14T03:14:49;8.50;99.90
69031;DHT22;56083;48.774;8.942;2023-03-14T03:17:14;8.40;99.90
69031;DHT22;56083;48.774;8.942;2023-03-14T03:19:40;8.40;99.90
69031;DHT22;56083;48.774;8.942;2023-03-14T03:22:06;8.50;99.90
69031;DHT22;56083;48.774;8.942;2023-03-14T03:24:32;8.50;99.90
69031;DHT22;56083;48.774;8.942;2023-03-14T03:26:57;8.50;99.90
69031;DHT22;56083;48.774;8.942;2023-03-14T03:29:23;8.50;99.90
69031;DHT22;56083;48.774;8.942;2023-03-14T03:31:49;8.50;99.90
69031;DHT22;56083;48.774;8.942;2023-03-14T03:34:14;8.50;99.90
69031;DHT22;56083;48.774;8.942;2023-03-14T03:36:41;8.50;99.90
69031;DHT22;56083;48.774;8.942;2023-03-14T03:39:07;8.50;99.90
69031;DHT22;56083;48.774;8.942;2023-03-14T03:41:33;8.50;99.90
69031;DHT22;56083;48.774;8.942;2023-03-14T03:43:58;8.50;99.90
69031;DHT22;56083;48.774;8.942;2023-03-14T03:46:24;8.50;99.90
69031;DHT22;56083;48.774;8.942;2023-03-14T03:48:57;8.50;99.90
69031;DHT22;56083;48.774;8.942;2023-03-14T03:51:23;8.50;99.90
69031;DHT22;56083;48.774;8.942;2023-03-14T03:53:49;8.50;99.90
69031;DHT22;56083;48.774;8.942;2023-03-14T03:56:15;8.50;99.90
69031;DHT22;56083;48.774;8.942;2023-03-14T03:58:40;8.50;99.90
69031;DHT22;56083;48.774;8.942;2023-03-14T04:01:08;8.40;99.90
69031;DHT22;56083;48.774;8.942;2023-03-14T04:03:34;8.40;99.90
69031;DHT22;56083;48.774;8.942;2023-03-14T04:06:02;8.40;99.90
69031;DHT22;56083;48.774;8.942;2023-03-14T04:08:28;8.30;99.90
69031;DHT22;56083;48.774;8.942;2023-03-14T04:10:58;8.30;99.90
69031;DHT22;56083;48.774;8.942;2023-03-14T04:13:24;8.40;99.90
69031;DHT22;56083;48.774;8.942;2023-03-14T04:15:51;8.30;99.90
69031;DHT22;56083;48.774;8.942;2023-03-14T04:18:17;8.20;99.90
69031;DHT22;56083;48.774;8.942;2023-03-14T04:20:43;8.30;99.90
69031;DHT22;56083;48.774;8.942;2023-03-14T04:23:09;8.20;99.90
69031;DHT22;56083;48.774;8.942;2023-03-14T04:25:35;8.10;99.90
69031;DHT22;56083;48.774;8.942;2023-03-14T04:28:01;8.20;99.90
69031;DHT22;56083;48.774;8.942;2023-03-14T04:30:28;8.10;99.90
69031;DHT22;56083;48.774;8.942;2023-03-14T04:32:54;8.10;99.90
69031;DHT22;56083;48.774;8.942;2023-03-14T04:35:20;8.00;99.90
69031;DHT22;56083;48.774;8.942;2023-03-14T04:37:46;8.00;99.90
69031;DHT22;56083;48.774;8.942;2023-03-14T04:40:14;8.00;99.90
69031;DHT22;56083;48.774;8.942;2023-03-14T04:42:41;8.00;99.90
69031;DHT22;56083;48.774;8.942;2023-03-14T04:45:07;7.90;99.90
69031;DHT22;56083;48.774;8.942;2023-03-14T04:47:33;7.90;99.90
69031;DHT22;56083;48.774;8.942;2023-03-14T04:49:59;8.00;99.90
69031;DHT22;56083;48.774;8.942;2023-03-14T04:52:26;8.00;99.90
69031;DHT22;56083;48.774;8.942;2023-03-14T04:54:51;8.00;99.90
69031;DHT22;56083;48.774;8.942;2023-03-14T04:57:17;8.00;99.90
69031;DHT22;56083;48.774;8.942;2023-03-14T04:59:43;8.00;99.90
69031;DHT22;56083;48.774;8.942;2023-03-14T05:02:09;7.90;99.90
69031;DHT22;56083;48.774;8.942;2023-03-14T05:04:35;8.00;99.90
69031;DHT22;56083;48.774;8.942;2023-03-14T05:07:01;8.00;99.90
69031;DHT22;56083;48.774;8.942;2023-03-14T05:09:27;8.00;99.90
69031;DHT22;56083;48.774;8.942;2023-03-14T05:11:52;7.90;99.90
69031;DHT22;56083;48.774;8.942;2023-03-14T05:14:18;7.90;99.90
69031;DHT22;56083;48.774;8.942;2023-03-14T05:16:44;7.90;99.90
69031;DHT22;56083;48.774;8.942;2023-03-14T05:19:17;7.90;99.90
69031;DHT22;56083;48.774;8.942;2023-03-14T05:21:43;7.90;99.90
69031;DHT22;56083;48.774;8.942;2023-03-14T05:24:11;7.80;99.90
69031;DHT22;56083;48.774;8.942;2023-03-14T05:26:37;7.90;99.90
69031;DHT22;56083;48.774;8.942;2023-03-14T05:29:03;7.90;99.90
69031;DHT22;56083;48.774;8.942;2023-03-14T05:31:29;8.00;99.90
69031;DHT22;56083;48.774;8.942;2023-03-14T05:34:00;8.00;99.90
69031;DHT22;56083;48.774;8.942;2023-03-14T05:36:26;8.00;99.90
69031;DHT22;56083;48.774;8.942;2023-03-14T05:38:52;8.00;99.90
69031;DHT22;56083;48.774;8.942;2023-03-14T05:41:17;8.10;99.90
69031;DHT22;56083;48.774;8.942;2023-03-14T05:43:43;8.20;99.90
69031;DHT22;56083;48.774;8.942;2023-03-14T05:46:09;8.40;99.90
69031;DHT22;56083;48.774;8.942;2023-03-14T05:48:34;8.40;99.90
69031;DHT22;56083;48.774;8.942;2023-03-14T05:51:03;8.50;99.90
69031;DHT22;56083;48.774;8.942;2023-03-14T05:53:28;8.50;99.90
69031;DHT22;56083;48.774;8.942;2023-03-14T05:55:57;8.40;99.90
69031;DHT22;56083;48.774;8.942;2023-03-14T05:58:23;8.40;99.90
69031;DHT22;56083;48.774;8.942;2023-03-14T06:00:50;8.40;99.90
69031;DHT22;56083;48.774;8.942;2023-03-14T06:03:16;8.50;99.90
69031;DHT22;56083;48.774;8.942;2023-03-14T06:05:41;8.40;99.90
69031;DHT22;56083;48.774;8.942;2023-03-14T06:08:07;8.40;99.90
69031;DHT22;56083;48.774;8.942;2023-03-14T06:10:35;8.40;99.90
69031;DHT22;56083;48.774;8.942;2023-03-14T06:13:00;8.40;99.90
69031;DHT22;56083;48.774;8.942;2023-03-14T06:15:26;8.40;99.90
69031;DHT22;56083;48.774;8.942;2023-03-14T06:17:54;8.40;99.90
69031;DHT22;56083;48.774;8.942;2023-03-14T06:20:20;8.30;99.90
69031;DHT22;56083;48.774;8.942;2023-03-14T06:22:46;8.30;99.90
69031;DHT22;56083;48.774;8.942;2023-03-14T06:25:11;8.40;99.90
69031;DHT22;56083;48.774;8.942;2023-03-14T06:27:37;8.40;99.90
69031;DHT22;56083;48.774;8.942;2023-03-14T06:30:04;8.50;99.90
69031;DHT22;56083;48.774;8.942;2023-03-14T06:32:30;8.60;99.90
69031;DHT22;56083;48.774;8.942;2023-03-14T06:34:55;8.70;99.90
69031;DHT22;56083;48.774;8.942;2023-03-14T06:37:22;8.60;99.90
69031;DHT22;56083;48.774;8.942;2023-03-14T06:39:48;8.60;99.90
69031;DHT22;56083;48.774;8.942;2023-03-14T06:42:13;8.60;99.90
69031;DHT22;56083;48.774;8.942;2023-03-14T06:44:39;8.70;99.90
69031;DHT22;56083;48.774;8.942;2023-03-14T06:47:04;9.00;99.90
69031;DHT22;56083;48.774;8.942;2023-03-14T06:49:30;9.30;99.90
69031;DHT22;56083;48.774;8.942;2023-03-14T06:51:56;9.50;99.90
69031;DHT22;56083;48.774;8.942;2023-03-14T06:54:21;9.70;99.90
69031;DHT22;56083;48.774;8.942;2023-03-14T06:56:47;9.70;99.90
69031;DHT22;56083;48.774;8.942;2023-03-14T06:59:13;9.80;99.90
69031;DHT22;56083;48.774;8.942;2023-03-14T07:01:38;10.10;99.90
69031;DHT22;56083;48.774;8.942;2023-03-14T07:04:05;10.30;99.90
69031;DHT22;56083;48.774;8.942;2023-03-14T07:06:33;10.50;99.90
69031;DHT22;56083;48.774;8.942;2023-03-14T07:08:59;10.80;99.90
69031;DHT22;56083;48.774;8.942;2023-03-14T07:11:26;11.00;99.90
69031;DHT22;56083;48.774;8.942;2023-03-14T07:13:52;11.20;99.90
69031;DHT22;56083;48.774;8.942;2023-03-14T07:16:17;11.60;99.90
69031;DHT22;56083;48.774;8.942;2023-03-14T07:18:44;11.60;99.90
69031;DHT22;56083;48.774;8.942;2023-03-14T07:21:12;11.80;99.90
69031;DHT22;56083;48.774;8.942;2023-03-14T07:23:38;12.20;99.90
69031;DHT22;56083;48.774;8.942;2023-03-14T07:26:04;12.40;99.90
69031;DHT22;56083;48.774;8.942;2023-03-14T07:28:30;12.60;99.90
69031;DHT22;56083;48.774;8.942;2023-03-14T07:30:56;12.40;99.90
69031;DHT22;56083;48.774;8.942;2023-03-14T07:33:22;12.20;99.90
69031;DHT22;56083;48.774;8.942;2023-03-14T07:35:48;12.10;99.90
69031;DHT22;56083;48.774;8.942;2023-03-14T07:38:15;12.50;99.90
69031;DHT22;56083;48.774;8.942;2023-03-14T07:40:40;12.80;99.90
69031;DHT22;56083;48.774;8.942;2023-03-14T07:43:06;13.00;99.90
69031;DHT22;56083;48.774;8.942;2023-03-14T07:45:32;13.40;99.90
69031;DHT22;56083;48.774;8.942;2023-03-14T07:47:58;13.80;99.90
69031;DHT22;56083;48.774;8.942;2023-03-14T07:50:26;14.00;99.90
69031;DHT22;56083;48.774;8.942;2023-03-14T07:52:55;14.40;99.90
69031;DHT22;56083;48.774;8.942;2023-03-14T07:55:29;14.00;99.90
69031;DHT22;56083;48.774;8.942;2023-03-14T07:58:18;14.20;99.90
69031;DHT22;56083;48.774;8.942;2023-03-14T08:00:44;14.30;99.90
69031;DHT22;56083;48.774;8.942;2023-03-14T08:03:20;14.60;99.90
69031;DHT22;56083;48.774;8.942;2023-03-14T08:05:49;15.00;99.90
69031;DHT22;56083;48.774;8.942;2023-03-14T08:08:15;15.00;99.90
69031;DHT22;56083;48.774;8.942;2023-03-14T08:10:41;15.00;99.90
69031;DHT22;56083;48.774;8.942;2023-03-14T08:13:08;14.90;99.90
69031;DHT22;56083;48.774;8.942;2023-03-14T08:15:34;14.40;99.90
69031;DHT22;56083;48.774;8.942;2023-03-14T08:18:00;13.80;99.90
69031;DHT22;56083;48.774;8.942;2023-03-14T08:20:28;13.10;99.90
69031;DHT22;56083;48.774;8.942;2023-03-14T08:22:58;12.60;99.90
69031;DHT22;56083;48.774;8.942;2023-03-14T08:25:25;12.20;99.90
69031;DHT22;56083;48.774;8.942;2023-03-14T08:27:51;12.00;99.90
69031;DHT22;56083;48.774;8.942;2023-03-14T08:30:18;11.90;99.90
69031;DHT22;56083;48.774;8.942;2023-03-14T08:32:44;12.00;99.90
69031;DHT22;56083;48.774;8.942;2023-03-14T08:35:10;12.30;99.90
69031;DHT22;56083;48.774;8.942;2023-03-14T08:37:36;13.10;99.90
69031;DHT22;56083;48.774;8.942;2023-03-14T08:40:04;13.90;99.90
69031;DHT22;56083;48.774;8.942;2023-03-14T08:42:33;14.50;99.90
69031;DHT22;56083;48.774;8.942;2023-03-14T08:44:59;15.20;99.90
69031;DHT22;56083;48.774;8.942;2023-03-14T08:47:24;15.40;99.90
69031;DHT22;56083;48.774;8.942;2023-03-14T08:49:53;14.80;99.90
69031;DHT22;56083;48.774;8.942;2023-03-14T08:52:19;13.90;99.90
69031;DHT22;56083;48.774;8.942;2023-03-14T08:54:45;12.90;99.90
69031;DHT22;56083;48.774;8.942;2023-03-14T08:57:10;12.10;99.90
69031;DHT22;56083;48.774;8.942;2023-03-14T08:59:36;11.70;99.90
69031;DHT22;56083;48.774;8.942;2023-03-14T09:02:05;11.60;99.90
69031;DHT22;56083;48.774;8.942;2023-03-14T09:04:32;11.50;99.90
69031;DHT22;56083;48.774;8.942;2023-03-14T09:06:58;11.30;99.90
69031;DHT22;56083;48.774;8.942;2023-03-14T09:09:30;11.30;99.90
69031;DHT22;56083;48.774;8.942;2023-03-14T09:11:56;11.10;99.90
69031;DHT22;56083;48.774;8.942;2023-03-14T09:14:22;11.00;99.90
69031;DHT22;56083;48.774;8.942;2023-03-14T09:16:48;10.70;99.90
69031;DHT22;56083;48.774;8.942;2023-03-14T09:19:14;10.60;99.90
69031;DHT22;56083;48.774;8.942;2023-03-14T09:21:40;10.50;99.90
69031;DHT22;56083;48.774;8.942;2023-03-14T09:24:06;10.50;99.90
69031;DHT22;56083;48.774;8.942;2023-03-14T09:26:32;10.60;99.90
69031;DHT22;56083;48.774;8.942;2023-03-14T09:28:58;10.60;99.90
69031;DHT22;56083;48.774;8.942;2023-03-14T09:31:24;10.80;99.90
69031;DHT22;56083;48.774;8.942;2023-03-14T09:33:49;10.90;99.90
69031;DHT22;56083;48.774;8.942;2023-03-14T09:36:15;11.00;99.90
69031;DHT22;56083;48.774;8.942;2023-03-14T09:38:41;11.20;99.90
69031;DHT22;56083;48.774;8.942;2023-03-14T09:41:21;11.40;99.90
69031;DHT22;56083;48.774;8.942;2023-03-14T09:43:48;11.30;99.90
69031;DHT22;56083;48.774;8.942;2023-03-14T09:46:16;11.10;99.90
69031;DHT22;56083;48.774;8.942;2023-03-14T09:48:43;11.20;99.90
69031;DHT22;56083;48.774;8.942;2023-03-14T09:51:18;11.40;99.90
69031;DHT22;56083;48.774;8.942;2023-03-14T09:53:49;11.60;99.90
69031;DHT22;56083;48.774;8.942;2023-03-14T09:56:29;11.70;99.90
69031;DHT22;56083;48.774;8.942;2023-03-14T09:59:03;12.60;99.90
69031;DHT22;56083;48.774;8.942;2023-03-14T10:01:31;13.50;99.90
69031;DHT22;56083;48.774;8.942;2023-03-14T10:06:36;14.90;99.90
69031;DHT22;56083;48.774;8.942;2023-03-14T10:09:02;14.80;99.90
69031;DHT22;56083;48.774;8.942;2023-03-14T10:11:28;15.40;99.90
69031;DHT22;56083;48.774;8.942;2023-03-14T10:14:07;14.60;99.90
69031;DHT22;56083;48.774;8.942;2023-03-14T10:16:41;13.90;99.90
69031;DHT22;56083;48.774;8.942;2023-03-14T10:19:09;13.20;99.90
69031;DHT22;56083;48.774;8.942;2023-03-14T10:21:43;12.80;99.90
69031;DHT22;56083;48.774;8.942;2023-03-14T10:26:35;12.00;99.90
69031;DHT22;56083;48.774;8.942;2023-03-14T10:29:04;11.90;99.90
69031;DHT22;56083;48.774;8.942;2023-03-14T10:32:05;11.90;99.90
69031;DHT22;56083;48.774;8.942;2023-03-14T10:34:36;11.80;99.90
69031;DHT22;56083;48.774;8.942;2023-03-14T10:37:20;11.80;99.90
69031;DHT22;56083;48.774;8.942;2023-03-14T10:40:00;11.60;99.90
69031;DHT22;56083;48.774;8.942;2023-03-14T10:42:34;11.50;99.90
69031;DHT22;56083;48.774;8.942;2023-03-14T10:47:50;11.20;99.90
69031;DHT22;56083;48.774;8.942;2023-03-14T10:50:30;11.10;99.90
69031;DHT22;56083;48.774;8.942;2023-03-14T10:52:59;11.10;99.90
69031;DHT22;56083;48.774;8.942;2023-03-14T10:55:40;10.90;99.90
69031;DHT22;56083;48.774;8.942;2023-03-14T10:58:24;10.60;99.90
69031;DHT22;56083;48.774;8.942;2023-03-14T11:01:02;10.50;99.90
69031;DHT22;56083;48.774;8.942;2023-03-14T11:03:32;10.30;99.90
69031;DHT22;56083;48.774;8.942;2023-03-14T11:06:20;10.20;99.90
69031;DHT22;56083;48.774;8.942;2023-03-14T11:09:02;10.00;99.90
69031;DHT22;56083;48.774;8.942;2023-03-14T11:11:31;9.90;99.90
69031;DHT22;56083;48.774;8.942;2023-03-14T11:16:53;9.60;99.90
69031;DHT22;56083;48.774;8.942;2023-03-14T11:19:50;9.40;99.90
69031;DHT22;56083;48.774;8.942;2023-03-14T11:25:32;9.30;99.90
69031;DHT22;56083;48.774;8.942;2023-03-14T11:28:40;9.30;99.90
69031;DHT22;56083;48.774;8.942;2023-03-14T11:36:24;9.20;99.90
69031;DHT22;56083;48.774;8.942;2023-03-14T11:38:56;9.20;99.90
69031;DHT22;56083;48.774;8.942;2023-03-14T11:41:32;9.10;99.90
69031;DHT22;56083;48.774;8.942;2023-03-14T11:44:03;9.10;99.90
69031;DHT22;56083;48.774;8.942;2023-03-14T11:49:36;9.00;99.90
69031;DHT22;56083;48.774;8.942;2023-03-14T11:52:37;9.20;99.90
69031;DHT22;56083;48.774;8.942;2023-03-14T11:55:24;9.50;99.90
69031;DHT22;56083;48.774;8.942;2023-03-14T11:57:53;9.50;99.90
69031;DHT22;56083;48.774;8.942;2023-03-14T12:00:23;9.50;99.90
69031;DHT22;56083;48.774;8.942;2023-03-14T12:03:09;9.40;99.90
69031;DHT22;56083;48.774;8.942;2023-03-14T12:11:03;9.30;99.90
69031;DHT22;56083;48.774;8.942;2023-03-14T12:13:32;9.40;99.90
69031;DHT22;56083;48.774;8.942;2023-03-14T12:16:00;10.00;99.90
69031;DHT22;56083;48.774;8.942;2023-03-14T12:18:36;11.00;99.90
69031;DHT22;56083;48.774;8.942;2023-03-14T12:21:09;11.10;99.90
69031;DHT22;56083;48.774;8.942;2023-03-14T12:23:53;10.70;99.90
69031;DHT22;56083;48.774;8.942;2023-03-14T12:26:27;10.00;99.90
69031;DHT22;56083;48.774;8.942;2023-03-14T12:29:15;10.30;99.90
69031;DHT22;56083;48.774;8.942;2023-03-14T12:31:42;11.30;99.90
69031;DHT22;56083;48.774;8.942;2023-03-14T12:44:44;13.80;99.90
69031;DHT22;56083;48.774;8.942;2023-03-14T12:49:42;14.40;99.90
69031;DHT22;56083;48.774;8.942;2023-03-14T12:52:33;14.60;99.90
69031;DHT22;56083;48.774;8.942;2023-03-14T12:55:07;14.10;99.90
69031;DHT22;56083;48.774;8.942;2023-03-14T13:00:38;14.10;99.90
69031;DHT22;56083;48.774;8.942;2023-03-14T13:05:58;13.10;99.90
69031;DHT22;56083;48.774;8.942;2023-03-14T13:11:02;11.90;99.90
69031;DHT22;56083;48.774;8.942;2023-03-14T13:13:29;12.30;99.90
69031;DHT22;56083;48.774;8.942;2023-03-14T13:15:57;12.70;99.90
69031;DHT22;56083;48.774;8.942;2023-03-14T13:18:35;12.30;99.90
69031;DHT22;56083;48.774;8.942;2023-03-14T13:23:36;11.10;99.90
69031;DHT22;56083;48.774;8.942;2023-03-14T13:26:03;11.00;99.90
69031;DHT22;56083;48.774;8.942;2023-03-14T13:28:30;10.50;99.90
69031;DHT22;56083;48.774;8.942;2023-03-14T13:30:59;10.40;99.90
69031;DHT22;56083;48.774;8.942;2023-03-14T13:33:25;10.00;99.90
69031;DHT22;56083;48.774;8.942;2023-03-14T13:36:00;9.60;99.90
69031;DHT22;56083;48.774;8.942;2023-03-14T13:38:29;9.30;99.90
69031;DHT22;56083;48.774;8.942;2023-03-14T13:40:56;9.30;99.90
69031;DHT22;56083;48.774;8.942;2023-03-14T13:43:40;9.30;99.90
69031;DHT22;56083;48.774;8.942;2023-03-14T13:46:13;9.40;99.90
69031;DHT22;56083;48.774;8.942;2023-03-14T13:48:46;9.30;99.90
69031;DHT22;56083;48.774;8.942;2023-03-14T13:51:15;9.20;99.90
69031;DHT22;56083;48.774;8.942;2023-03-14T13:53:46;9.00;99.90
69031;DHT22;56083;48.774;8.942;2023-03-14T13:56:12;9.10;99.90
69031;DHT22;56083;48.774;8.942;2023-03-14T13:58:39;9.30;99.90
69031;DHT22;56083;48.774;8.942;2023-03-14T14:01:32;9.50;99.90
69031;DHT22;56083;48.774;8.942;2023-03-14T14:04:08;9.30;99.90
69031;DHT22;56083;48.774;8.942;2023-03-14T14:06:44;9.10;99.90
69031;DHT22;56083;48.774;8.942;2023-03-14T14:09:15;9.00;99.90
69031;DHT22;56083;48.774;8.942;2023-03-14T14:12:02;9.00;99.90
69031;DHT22;56083;48.774;8.942;2023-03-14T14:17:18;9.40;99.90
69031;DHT22;56083;48.774;8.942;2023-03-14T14:19:45;9.20;99.90
69031;DHT22;56083;48.774;8.942;2023-03-14T14:22:11;9.20;99.90
69031;DHT22;56083;48.774;8.942;2023-03-14T14:24:37;9.20;99.90
69031;DHT22;56083;48.774;8.942;2023-03-14T14:27:18;9.10;99.90
69031;DHT22;56083;48.774;8.942;2023-03-14T14:30:04;8.80;99.90
69031;DHT22;56083;48.774;8.942;2023-03-14T14:32:38;8.70;99.90
69031;DHT22;56083;48.774;8.942;2023-03-14T14:35:05;8.70;99.90
69031;DHT22;56083;48.774;8.942;2023-03-14T14:37:34;8.80;99.90
69031;DHT22;56083;48.774;8.942;2023-03-14T14:40:08;8.80;99.90
69031;DHT22;56083;48.774;8.942;2023-03-14T14:42:39;8.80;99.90
69031;DHT22;56083;48.774;8.942;2023-03-14T14:53:21;8.90;99.90
69031;DHT22;56083;48.774;8.942;2023-03-14T14:55:54;9.00;99.90
69031;DHT22;56083;48.774;8.942;2023-03-14T14:58:34;8.90;99.90
69031;DHT22;56083;48.774;8.942;2023-03-14T15:01:21;8.90;99.90
69031;DHT22;56083;48.774;8.942;2023-03-14T15:03:52;9.10;99.90
69031;DHT22;56083;48.774;8.942;2023-03-14T15:06:19;9.10;99.90
69031;DHT22;56083;48.774;8.942;2023-03-14T15:08:48;9.30;99.90
69031;DHT22;56083;48.774;8.942;2023-03-14T15:11:19;9.10;99.90
69031;DHT22;56083;48.774;8.942;2023-03-14T15:13:45;9.40;99.90
69031;DHT22;56083;48.774;8.942;2023-03-14T15:16:12;9.60;99.90
69031;DHT22;56083;48.774;8.942;2023-03-14T15:18:39;9.40;99.90
69031;DHT22;56083;48.774;8.942;2023-03-14T15:21:05;9.10;99.90
69031;DHT22;56083;48.774;8.942;2023-03-14T15:23:31;8.90;99.90
69031;DHT22;56083;48.774;8.942;2023-03-14T15:25:57;8.80;99.90
69031;DHT22;56083;48.774;8.942;2023-03-14T15:28:24;9.10;99.90
69031;DHT22;56083;48.774;8.942;2023-03-14T15:30:53;9.40;99.90
69031;DHT22;56083;48.774;8.942;2023-03-14T15:33:18;9.30;99.90
69031;DHT22;56083;48.774;8.942;2023-03-14T15:35:45;9.40;99.90
69031;DHT22;56083;48.774;8.942;2023-03-14T15:38:12;10.10;99.90
69031;DHT22;56083;48.774;8.942;2023-03-14T15:40:39;10.40;99.90
69031;DHT22;56083;48.774;8.942;2023-03-14T15:43:05;10.00;99.90
69031;DHT22;56083;48.774;8.942;2023-03-14T15:45:30;9.60;99.90
69031;DHT22;56083;48.774;8.942;2023-03-14T15:47:56;9.60;99.90
69031;DHT22;56083;48.774;8.942;2023-03-14T15:50:22;9.60;99.90
69031;DHT22;56083;48.774;8.942;2023-03-14T15:52:48;9.70;99.90
69031;DHT22;56083;48.774;8.942;2023-03-14T15:55:14;9.60;99.90
69031;DHT22;56083;48.774;8.942;2023-03-14T15:57:44;9.30;99.90
69031;DHT22;56083;48.774;8.942;2023-03-14T16:00:15;9.10;99.90
69031;DHT22;56083;48.774;8.942;2023-03-14T16:02:43;8.70;99.90
69031;DHT22;56083;48.774;8.942;2023-03-14T16:05:11;8.60;99.90
69031;DHT22;56083;48.774;8.942;2023-03-14T16:07:40;8.50;99.90
69031;DHT22;56083;48.774;8.942;2023-03-14T16:10:07;9.10;99.90
69031;DHT22;56083;48.774;8.942;2023-03-14T16:12:33;9.70;99.90
69031;DHT22;56083;48.774;8.942;2023-03-14T16:14:59;9.80;99.90
69031;DHT22;56083;48.774;8.942;2023-03-14T16:17:25;9.50;99.90
69031;DHT22;56083;48.774;8.942;2023-03-14T16:19:51;9.10;99.90
69031;DHT22;56083;48.774;8.942;2023-03-14T16:22:17;8.90;99.90
69031;DHT22;56083;48.774;8.942;2023-03-14T16:24:43;8.70;99.90
69031;DHT22;56083;48.774;8.942;2023-03-14T16:27:09;8.40;99.90
69031;DHT22;56083;48.774;8.942;2023-03-14T16:29:35;8.20;99.90
69031;DHT22;56083;48.774;8.942;2023-03-14T16:32:00;8.10;99.90
69031;DHT22;56083;48.774;8.942;2023-03-14T16:34:26;8.10;99.90
69031;DHT22;56083;48.774;8.942;2023-03-14T16:36:51;7.90;99.90
69031;DHT22;56083;48.774;8.942;2023-03-14T16:39:18;7.90;99.90
69031;DHT22;56083;48.774;8.942;2023-03-14T16:41:44;7.80;99.90
69031;DHT22;56083;48.774;8.942;2023-03-14T16:44:10;7.90;99.90
69031;DHT22;56083;48.774;8.942;2023-03-14T16:46:36;7.80;99.90
69031;DHT22;56083;48.774;8.942;2023-03-14T16:49:03;7.80;99.90
69031;DHT22;56083;48.774;8.942;2023-03-14T16:51:29;7.70;99.90
69031;DHT22;56083;48.774;8.942;2023-03-14T16:53:54;7.80;99.90
69031;DHT22;56083;48.774;8.942;2023-03-14T16:56:20;7.80;99.90
69031;DHT22;56083;48.774;8.942;2023-03-14T16:58:47;7.80;99.90
69031;DHT22;56083;48.774;8.942;2023-03-14T17:01:15;7.80;99.90
69031;DHT22;56083;48.774;8.942;2023-03-14T17:03:47;7.70;99.90
69031;DHT22;56083;48.774;8.942;2023-03-14T17:06:24;7.70;99.90
69031;DHT22;56083;48.774;8.942;2023-03-14T17:08:51;7.70;99.90